Latest Weather Observations for Rhyll

IDV60901

Issued at 4:31 am EST Wednesday 23 September 2020 (issued every 10 minutes, with the page automatically refreshed every 10 minutes)

About weather observations | Map of Melbourne area stations | Latest observations for Melbourne area | Other Formats
Station Details ID: 086373 Name: RHYLL Lat: -38.46 Lon: 145.31 Height: 13.4 m
Data from the previous 72 hours. | See also: Recent months at Rhyll
Date/Time
EST
Temp
°C
App
Temp
°C
Dew
Point
°C
Rel
Hum
%
Delta-T
°C
Wind Press
QNH
hPa
Press
MSL
hPa
Rain since
9am
mm
Dir  Spd
km/h
Gust
km/h
Spd
kts
Gust
kts
23/04:30am 11.7 7.6 6.4 70 2.5 WNW 17 35 9 19 1008.4 1008.4 1.8
23/04:00am 11.7 7.6 6.2 69 2.6 WNW 17 39 9 21 1008.4 1008.4 1.8
23/03:30am 11.7 8.0 6.4 70 2.5 WNW 15 33 8 18 1008.4 1008.4 1.8
23/03:00am 11.9 8.2 6.4 69 2.6 WNW 15 26 8 14 1008.5 1008.5 1.8
23/02:30am 11.9 7.4 6.2 68 2.7 WNW 19 43 10 23 1008.5 1008.5 1.8
23/02:00am 12.1 8.4 6.4 68 2.7 WNW 15 32 8 17 1008.7 1008.7 1.8
23/01:30am 12.2 8.2 6.5 68 2.7 WNW 17 35 9 19 1008.8 1008.8 1.8
23/01:00am 12.1 7.7 6.4 68 2.7 WNW 19 33 10 18 1009.0 1009.0 1.8
23/12:30am 12.4 8.8 6.7 68 2.7 WNW 15 30 8 16 1009.1 1009.1 1.8
23/12:00am 12.3 9.4 6.4 67 2.8 WNW 11 26 6 14 1008.9 1008.9 1.8
 
Date/Time
EST
Temp
°C
App
Temp
°C
Dew
Point
°C
Rel
Hum
%
Delta-T
°C
Wind Press
QNH
hPa
Press
MSL
hPa
Rain since
9am
mm
Dir  Spd
km/h
Gust
km/h
Spd
kts
Gust
kts
22/11:30pm 12.3 9.4 6.4 67 2.8 NW 11 26 6 14 1008.8 1008.8 1.8
22/11:00pm 12.3 8.6 6.1 66 2.9 WNW 15 35 8 19 1008.8 1008.8 1.8
22/10:30pm 12.3 9.4 6.4 67 2.8 WNW 11 24 6 13 1008.7 1008.7 1.8
22/10:00pm 12.3 9.8 6.6 68 2.7 NW 9 20 5 11 1008.7 1008.7 1.8
22/09:30pm 12.1 9.7 7.2 72 2.4 NW 9 19 5 10 1008.9 1008.9 1.8
22/09:00pm 12.0 9.5 6.5 69 2.6 NW 9 19 5 10 1009.0 1009.0 1.8
22/08:30pm 12.2 8.8 6.0 66 2.9 WNW 13 24 7 13 1008.8 1008.8 1.8
22/08:00pm 12.2 8.8 6.0 66 2.9 WNW 13 28 7 15 1008.5 1008.5 1.8
22/07:30pm 12.0 9.1 6.3 68 2.7 WNW 11 22 6 12 1008.1 1008.1 1.8
22/07:00pm 12.1 7.9 5.9 66 2.9 W 17 28 9 15 1007.5 1007.5 1.8
22/06:30pm 12.3 9.2 7.4 72 2.4 W 13 24 7 13 1007.1 1007.1 1.8
22/06:00pm 13.1 8.8 7.1 67 2.9 W 19 30 10 16 1006.5 1006.5 1.8
22/05:30pm 13.6 9.2 7.2 65 3.1 W 20 39 11 21 1005.5 1005.5 1.8
22/05:00pm 13.7 8.5 7.2 65 3.2 WNW 24 43 13 23 1004.9 1004.9 1.8
22/04:30pm 13.9 9.5 7.4 65 3.2 WNW 20 39 11 21 1004.2 1004.2 1.4
22/04:00pm 12.9 10.4 8.2 73 2.3 WNW 11 28 6 15 1003.4 1003.4 1.4
22/03:30pm 15.5 8.5 6.8 56 4.3 NNW 33 57 18 31 1002.4 1002.4 0.4
22/03:04pm 16.0 10.1 7.7 58 4.2 NNW 28 54 15 29 1002.4 1002.4 0.2
22/03:00pm 15.9 11.2 7.9 59 4.0 NW 22 46 12 25 1002.5 1002.5 0.2
22/02:30pm 14.7 11.7 9.1 69 2.9 NW 15 26 8 14 1002.7 1002.7 0.0
22/02:11pm 14.6 7.7 7.4 62 3.5 NNW 33 52 18 28 1003.0 1003.0 0.0
22/02:00pm 15.7 10.1 7.0 56 4.3 NW 26 48 14 26 1002.6 1002.6 0.0
22/01:45pm 15.9 8.0 6.3 53 4.7 NNW 37 61 20 33 1002.4 1002.4 0.0
22/01:30pm 15.9 8.9 5.8 51 4.9 NNW 32 46 17 25 1002.6 1002.6 0.0
22/01:00pm 16.3 9.7 5.9 50 5.1 NNW 30 50 16 27 1003.0 1003.0 0.0
22/12:39pm 16.0 8.1 6.4 53 4.7 NNW 37 57 20 31 1003.1 1003.1 0.0
22/12:30pm 16.1 8.3 6.5 53 4.7 NNW 37 56 20 30 1003.2 1003.2 0.0
22/12:00pm 16.2 8.8 6.6 53 4.7 NNW 35 57 19 31 1003.3 1003.3 0.0
22/11:30am 15.9 9.4 6.6 54 4.5 NNW 30 52 16 28 1003.3 1003.3 0.0
22/11:04am 15.8 8.3 6.5 54 4.5 NNW 35 54 19 29 1003.6 1003.6 0.0
22/11:00am 15.8 9.0 7.6 58 4.1 NNW 33 50 18 27 1003.6 1003.6 0.0
22/10:48am 15.3 7.8 6.3 55 4.4 NNW 35 56 19 30 1003.6 1003.6 0.0
22/10:30am 15.4 6.5 6.7 56 4.2 NNW 43 57 23 31 1003.6 1003.6 0.0
22/10:00am 15.2 7.8 6.7 57 4.2 NNW 35 56 19 30 1003.9 1003.9 0.0
22/09:30am 14.9 6.7 6.5 57 4.1 NNW 39 54 21 29 1004.0 1004.0 0.0
22/09:00am 14.4 7.5 6.3 58 3.9 NNW 32 50 17 27 1004.1 1004.1 0.2
22/08:34am 14.1 7.9 6.0 58 3.9 NNW 28 48 15 26 1004.1 1004.1 0.2
22/08:30am 14.2 8.0 6.3 59 3.8 NNW 28 44 15 24 1004.2 1004.2 0.2
22/08:01am 13.9 7.7 6.0 59 3.8 NW 28 50 15 27 1004.1 1004.1 0.2
22/08:00am 13.9 8.0 5.8 58 3.9 NW 26 50 14 27 1004.1 1004.1 0.2
22/07:37am 13.6 7.5 6.5 62 3.4 NNW 28 48 15 26 1003.9 1003.9 0.2
22/07:30am 13.6 6.8 6.7 63 3.3 NNW 32 48 17 26 1003.9 1003.9 0.2
22/07:00am 13.3 6.6 7.3 67 2.9 NNW 32 46 17 25 1003.7 1003.7 0.2
22/06:30am 13.2 6.4 6.8 65 3.1 NNW 32 48 17 26 1003.4 1003.4 0.2
22/06:00am 13.5 7.1 6.8 64 3.2 NNW 30 43 16 23 1003.2 1003.2 0.2
22/05:30am 13.6 8.2 6.2 61 3.5 NNW 24 41 13 22 1003.0 1003.0 0.2
22/05:00am 13.7 8.3 6.3 61 3.6 NNW 24 37 13 20 1002.9 1002.9 0.2
22/04:30am 13.9 8.8 5.8 58 3.8 NNW 22 35 12 19 1002.8 1002.8 0.2
22/04:00am 14.2 8.4 6.1 58 3.9 NNW 26 37 14 20 1002.5 1002.5 0.2
22/03:30am 14.2 8.1 6.8 61 3.6 NNW 28 37 15 20 1002.6 1002.6 0.2
22/03:00am 14.0 8.3 6.8 62 3.5 NNW 26 35 14 19 1002.6 1002.6 0.2
22/02:30am 14.3 7.2 6.2 58 3.9 NNW 33 41 18 22 1002.8 1002.8 0.2
22/02:00am 14.4 6.8 6.0 57 4.0 NNW 35 44 19 24 1002.8 1002.8 0.2
22/01:30am 14.6 7.6 6.2 57 4.0 NNW 32 37 17 20 1003.2 1003.2 0.2
22/01:00am 14.5 7.5 5.8 56 4.2 N 32 39 17 21 1003.4 1003.4 0.2
22/12:30am 14.6 8.7 5.9 56 4.2 NNW 26 33 14 18 1003.6 1003.6 0.2
22/12:00am 14.5 8.6 5.8 56 4.2 N 26 32 14 17 1003.8 1003.8 0.2
 
Date/Time
EST
Temp
°C
App
Temp
°C
Dew
Point
°C
Rel
Hum
%
Delta-T
°C
Wind Press
QNH
hPa
Press
MSL
hPa
Rain since
9am
mm
Dir  Spd
km/h
Gust
km/h
Spd
kts
Gust
kts
21/11:30pm 14.0 9.3 6.1 59 3.8 N 20 24 11 13 1003.9 1003.9 0.2
21/11:00pm 13.9 9.3 6.3 60 3.7 N 20 26 11 14 1003.8 1003.8 0.2
21/10:30pm 14.0 8.8 7.1 63 3.4 N 24 30 13 16 1003.7 1003.7 0.2
21/10:00pm 14.3 10.8 7.1 62 3.5 N 15 22 8 12 1003.7 1003.7 0.2
21/09:30pm 14.0 11.2 7.1 63 3.4 NNE 11 20 6 11 1003.7 1003.7 0.2
21/09:00pm 14.3 11.2 7.1 62 3.5 N 13 19 7 10 1003.5 1003.5 0.2
21/08:30pm 14.5 11.3 6.8 60 3.7 N 13 17 7 9 1003.4 1003.4 0.2
21/08:00pm 14.7 12.2 8.0 64 3.4 N 11 17 6 9 1003.4 1003.4 0.2
21/07:30pm 14.6 12.8 7.9 64 3.3 NNE 7 17 4 9 1003.1 1003.1 0.2
21/07:00pm 15.6 13.1 8.1 61 3.8 NNW 11 17 6 9 1002.8 1002.8 0.2
21/06:30pm 15.9 12.0 8.6 62 3.7 NNW 19 28 10 15 1002.5 1002.5 0.2
21/06:00pm 16.5 12.9 8.2 58 4.2 NNW 17 24 9 13 1002.5 1002.5 0.2
21/05:30pm 16.5 12.7 7.7 56 4.4 NNW 17 26 9 14 1002.4 1002.4 0.2
21/05:00pm 17.0 12.8 7.6 54 4.8 NNW 19 28 10 15 1002.1 1002.1 0.2
21/04:30pm 17.0 12.6 7.6 54 4.7 NNW 20 28 11 15 1001.9 1001.9 0.2
21/04:00pm 17.2 11.4 6.4 49 5.3 NNW 26 35 14 19 1001.9 1001.9 0.2
21/03:30pm 17.4 12.5 6.9 50 5.2 NNW 22 32 12 17 1002.3 1002.3 0.2
21/03:00pm 17.5 12.4 7.8 53 4.9 NNW 24 35 13 19 1002.9 1002.9 0.2
21/02:30pm 17.5 12.4 7.5 52 5.0 NNW 24 32 13 17 1003.0 1003.0 0.2
21/02:00pm 17.8 14.0 7.5 51 5.2 N 17 22 9 12 1003.2 1003.2 0.2
21/01:30pm 17.6 15.0 9.2 58 4.4 NNW 13 19 7 10 1003.6 1003.6 0.0
21/01:00pm 17.4 17.4 11.2 67 3.4 ENE 2 6 1 3 1004.0 1004.0 0.0
21/12:30pm 17.6 17.1 10.7 64 3.7 NE 4 6 2 3 1004.2 1004.2 0.0
21/12:00pm 17.6 16.8 10.9 65 3.6 E 6 9 3 5 1003.9 1003.9 0.0
21/11:30am 17.5 16.8 9.9 61 4.0 E 4 6 2 3 1003.7 1003.7 0.0
21/11:00am 18.1 17.4 11.4 65 3.7 E 6 7 3 4 1003.9 1003.9 0.0
21/10:30am 17.3 15.9 9.7 61 4.0 E 7 9 4 5 1004.1 1004.1 0.0
21/10:00am 16.0 14.8 9.4 65 3.4 ENE 6 6 3 3 1005.0 1005.0 0.0
21/09:30am 15.0 14.7 8.5 65 3.3 CALM 0 2 0 1 1004.9 1004.9 0.0
21/09:00am 14.4 13.9 9.2 71 2.7 W 2 4 1 2 1005.1 1005.1 1.2
21/08:30am 14.1 13.5 8.9 71 2.6 NNW 2 6 1 3 1005.0 1005.0 1.2
21/08:00am 13.7 12.6 8.5 71 2.6 W 4 6 2 3 1005.1 1005.1 1.2
21/07:30am 13.8 13.1 8.6 71 2.6 NNW 2 6 1 3 1004.7 1004.7 1.2
21/07:00am 14.0 12.6 9.0 72 2.5 WNW 6 11 3 6 1005.0 1005.0 1.2
21/06:30am 14.4 13.2 10.4 77 2.1 WNW 7 15 4 8 1004.5 1004.5 1.2
21/06:00am 14.5 12.8 11.1 80 1.8 W 11 26 6 14 1004.9 1004.9 1.2
21/05:30am 15.1 13.9 12.8 86 1.3 WNW 11 22 6 12 1004.6 1004.6 1.2
21/05:00am 15.6 15.4 12.9 84 1.5 WNW 6 15 3 8 1004.1 1004.1 1.2
21/04:30am 15.8 14.6 12.9 83 1.6 WNW 11 20 6 11 1003.1 1003.1 1.0
21/04:00am 17.8 14.6 12.0 69 3.2 NNW 20 30 11 16 1003.1 1003.1 0.0
21/03:30am 18.5 12.9 11.6 64 3.8 N 32 43 17 23 1002.1 1002.1 0.0
21/03:00am 18.9 13.4 11.7 63 4.0 N 32 39 17 21 1002.0 1002.0 0.0
21/02:30am 18.3 13.6 12.1 67 3.4 N 28 37 15 20 1002.0 1002.0 0.0
21/02:00am 18.2 12.6 12.2 68 3.3 N 33 43 18 23 1003.0 1003.0 0.0
21/01:30am 17.6 15.1 12.3 71 2.9 NNE 17 30 9 16 1002.8 1002.8 0.0
21/01:00am 17.7 13.4 12.2 70 3.0 N 26 32 14 17 1003.4 1003.4 0.0
21/12:30am 17.8 12.4 12.3 70 3.0 N 32 37 17 20 1003.5 1003.5 0.0
21/12:00am 17.6 12.2 12.3 71 2.9 N 32 37 17 20 1003.4 1003.4 0.0
 
Date/Time
EST
Temp
°C
App
Temp
°C
Dew
Point
°C
Rel
Hum
%
Delta-T
°C
Wind Press
QNH
hPa
Press
MSL
hPa
Rain since
9am
mm
Dir  Spd
km/h
Gust
km/h
Spd
kts
Gust
kts
20/11:30pm 17.2 11.9 12.5 74 2.6 NNW 32 35 17 19 1003.6 1003.6 0.0
20/11:00pm 17.6 13.8 12.5 72 2.8 N 24 35 13 19 1003.7 1003.7 0.0
20/10:30pm 15.8 14.3 12.0 78 2.1 NE 11 15 6 8 1003.9 1003.9 0.0
20/10:00pm 16.2 14.0 12.2 77 2.2 NNE 15 19 8 10 1003.8 1003.8 0.0
20/09:30pm 16.2 14.4 12.0 76 2.3 NNE 13 17 7 9 1003.9 1003.9 0.0
20/09:00pm 16.6 14.8 12.2 75 2.4 NNE 13 19 7 10 1003.8 1003.8 0.0
20/08:30pm 16.3 15.2 12.1 76 2.3 NNE 9 17 5 9 1004.3 1004.3 0.0
20/08:00pm 16.0 15.5 12.0 77 2.2 NNE 6 9 3 5 1004.7 1004.7 0.0
20/07:30pm 16.6 14.7 11.7 73 2.7 NNW 13 19 7 10 1004.9 1004.9 0.0
20/07:00pm 17.2 14.9 11.9 71 2.9 NNW 15 20 8 11 1004.8 1004.8 0.0
20/06:30pm 17.4 14.1 11.7 69 3.1 NNW 20 30 11 16 1004.5 1004.5 0.0
20/06:00pm 18.0 15.7 11.8 67 3.4 NNW 15 24 8 13 1004.4 1004.4 0.0
20/05:30pm 18.2 15.9 11.7 66 3.6 NNW 15 26 8 14 1004.3 1004.3 0.0
20/05:00pm 19.1 16.5 11.9 63 4.0 NNW 17 28 9 15 1003.9 1003.9 0.0
20/04:30pm 18.5 14.9 11.8 65 3.7 NNW 22 30 12 16 1003.8 1003.8 0.0
20/04:00pm 19.0 14.9 11.3 61 4.2 NNW 24 33 13 18 1003.8 1003.8 0.0
20/03:30pm 18.8 15.1 11.6 63 4.0 NNW 22 32 12 17 1004.0 1004.0 0.0
20/03:00pm 18.6 14.1 11.4 63 4.0 NNW 26 35 14 19 1004.3 1004.3 0.0
20/02:30pm 19.5 16.5 12.0 62 4.2 NNW 19 28 10 15 1004.5 1004.5 0.0
20/02:00pm 19.8 16.4 11.3 58 4.7 NNW 20 32 11 17 1004.8 1004.8 0.0
20/01:30pm 19.6 16.2 11.1 58 4.6 NNW 20 30 11 16 1005.0 1005.0 0.0
20/01:00pm 19.3 16.6 11.6 61 4.3 NNW 17 28 9 15 1005.3 1005.3 0.0
20/12:30pm 19.3 13.6 11.1 59 4.5 NNW 32 41 17 22 1005.3 1005.3 0.0
20/12:00pm 20.0 15.4 12.3 61 4.3 NNW 28 37 15 20 1005.5 1005.5 0.0
20/11:30am 19.6 16.7 12.8 65 3.8 NNW 20 26 11 14 1005.8 1005.8 0.0
20/11:00am 19.9 15.6 13.1 65 3.9 NNW 28 37 15 20 1006.0 1006.0 0.0
20/10:30am 19.1 14.1 12.1 64 3.9 N 30 39 16 21 1006.2 1006.2 0.0
20/10:00am 19.0 14.8 12.3 65 3.7 NNW 26 37 14 20 1006.5 1006.5 0.0
20/09:30am 18.0 14.7 12.9 72 2.9 N 22 32 12 17 1006.8 1006.8 0.0
20/09:00am 18.5 14.5 12.9 70 3.2 N 26 37 14 20 1007.0 1007.0 0.0
20/08:30am 17.4 15.4 12.7 74 2.6 N 15 22 8 12 1007.2 1007.2 0.0
20/08:00am 18.1 15.4 12.8 71 3.0 NNE 19 28 10 15 1007.3 1007.3 0.0
20/07:30am 17.3 15.4 13.0 76 2.4 NNE 15 24 8 13 1007.5 1007.5 0.0
20/07:00am 16.8 14.7 12.3 75 2.5 N 15 20 8 11 1007.4 1007.4 0.0
20/06:30am 16.5 15.2 12.5 77 2.2 NNE 11 17 6 9 1007.4 1007.4 0.0
20/06:00am 16.6 14.9 12.4 76 2.3 N 13 17 7 9 1007.3 1007.3 0.0
20/05:30am 16.2 14.5 12.4 78 2.1 NE 13 17 7 9 1007.3 1007.3 0.0
20/05:00am 16.8 14.7 12.5 76 2.4 NE 15 19 8 10 1007.4 1007.4 0.0

Latest Capital City Observations: Canberra | Sydney | Melbourne | Brisbane | Adelaide | Perth | Hobart | Darwin

Other formats

Comma delimited format used in spreadsheet applications
http://www.bom.gov.au/fwo/IDV60901/IDV60901.94892.axf

JavaScript Object Notation format (JSON) in row-major order
http://www.bom.gov.au/fwo/IDV60901/IDV60901.94892.json

Data quality

Most of these data are generated automatically and are frequently updated. Quality checks on data are not normally performed. It is possible for incorrect values to appear. Refer to information at About Latest Weather Observations and please check the disclaimer before using these data.